sensor_id;sensor_type;location;lat;lon;timestamp;pressure;altitude;pressure_sealevel;temperature;humidity
69980;BME280;57318;56.232;43.944;2023-02-13T00:01:03;99060.56;;;-5.35;75.02
69980;BME280;57318;56.232;43.944;2023-02-13T00:03:29;99064.03;;;-5.36;75.39
69980;BME280;57318;56.232;43.944;2023-02-13T00:05:55;99066.59;;;-5.36;75.67
69980;BME280;57318;56.232;43.944;2023-02-13T00:08:21;99061.44;;;-5.36;75.56
69980;BME280;57318;56.232;43.944;2023-02-13T00:10:46;99058.03;;;-5.38;75.78
69980;BME280;57318;56.232;43.944;2023-02-13T00:13:12;99067.59;;;-5.40;75.67
69980;BME280;57318;56.232;43.944;2023-02-13T00:15:39;99061.63;;;-5.46;75.53
69980;BME280;57318;56.232;43.944;2023-02-13T00:18:04;99068.56;;;-5.46;75.19
69980;BME280;57318;56.232;43.944;2023-02-13T00:20:30;99058.97;;;-5.43;75.59
69980;BME280;57318;56.232;43.944;2023-02-13T00:22:57;99058.97;;;-5.43;75.51
69980;BME280;57318;56.232;43.944;2023-02-13T00:25:23;99058.19;;;-5.46;75.00
69980;BME280;57318;56.232;43.944;2023-02-13T00:27:50;99058.19;;;-5.46;75.13
69980;BME280;57318;56.232;43.944;2023-02-13T00:30:16;99054.88;;;-5.53;74.96
69980;BME280;57318;56.232;43.944;2023-02-13T00:32:42;99057.53;;;-5.56;74.98
69980;BME280;57318;56.232;43.944;2023-02-13T00:35:07;99053.28;;;-5.60;74.67
69980;BME280;57318;56.232;43.944;2023-02-13T00:37:33;99055.88;;;-5.60;74.59
69980;BME280;57318;56.232;43.944;2023-02-13T00:39:58;99054.22;;;-5.61;74.86
69980;BME280;57318;56.232;43.944;2023-02-13T00:42:24;99053.28;;;-5.60;75.08
69980;BME280;57318;56.232;43.944;2023-02-13T00:44:52;99055.88;;;-5.60;75.01
69980;BME280;57318;56.232;43.944;2023-02-13T00:47:18;99054.13;;;-5.58;75.05
69980;BME280;57318;56.232;43.944;2023-02-13T00:49:44;99051.72;;;-5.66;74.87
69980;BME280;57318;56.232;43.944;2023-02-13T00:52:10;99046.66;;;-5.72;75.03
69980;BME280;57318;56.232;43.944;2023-02-13T00:54:35;99037.25;;;-5.76;74.79
69980;BME280;57318;56.232;43.944;2023-02-13T00:57:01;99054.41;;;-5.72;75.55
69980;BME280;57318;56.232;43.944;2023-02-13T00:59:26;99063.16;;;-5.77;75.22
69980;BME280;57318;56.232;43.944;2023-02-13T01:01:52;99052.13;;;-5.87;74.86
69980;BME280;57318;56.232;43.944;2023-02-13T01:04:18;99051.50;;;-5.97;74.76
69980;BME280;57318;56.232;43.944;2023-02-13T01:06:44;99048.97;;;-6.00;74.89
69980;BME280;57318;56.232;43.944;2023-02-13T01:09:10;99053.34;;;-6.05;74.88
69980;BME280;57318;56.232;43.944;2023-02-13T01:11:35;99050.06;;;-6.13;74.53
69980;BME280;57318;56.232;43.944;2023-02-13T01:14:01;99052.81;;;-6.23;74.76
69980;BME280;57318;56.232;43.944;2023-02-13T01:16:27;99047.00;;;-6.34;74.70
69980;BME280;57318;56.232;43.944;2023-02-13T01:18:52;99043.69;;;-6.42;74.85
69980;BME280;57318;56.232;43.944;2023-02-13T01:21:20;99035.97;;;-6.44;75.21
69980;BME280;57318;56.232;43.944;2023-02-13T01:23:47;99035.22;;;-6.50;75.15
69980;BME280;57318;56.232;43.944;2023-02-13T01:26:18;99040.50;;;-6.57;75.55
69980;BME280;57318;56.232;43.944;2023-02-13T01:28:45;99038.84;;;-6.61;75.69
69980;BME280;57318;56.232;43.944;2023-02-13T01:31:11;99048.38;;;-6.64;76.03
69980;BME280;57318;56.232;43.944;2023-02-13T01:33:36;99045.81;;;-6.66;76.23
69980;BME280;57318;56.232;43.944;2023-02-13T01:36:10;99051.00;;;-6.66;76.37
69980;BME280;57318;56.232;43.944;2023-02-13T01:38:36;99047.47;;;-6.62;76.44
69980;BME280;57318;56.232;43.944;2023-02-13T01:41:02;99037.13;;;-6.62;76.15
69980;BME280;57318;56.232;43.944;2023-02-13T01:43:49;99039.72;;;-6.63;75.75
69980;BME280;57318;56.232;43.944;2023-02-13T01:46:22;99038.16;;;-6.72;75.41
69980;BME280;57318;56.232;43.944;2023-02-13T01:48:50;99039.13;;;-6.79;75.60
69980;BME280;57318;56.232;43.944;2023-02-13T01:51:25;99050.38;;;-6.82;75.75
69980;BME280;57318;56.232;43.944;2023-02-13T01:53:59;99032.41;;;-6.90;75.56
69980;BME280;57318;56.232;43.944;2023-02-13T01:59:00;99040.19;;;-6.91;75.63
69980;BME280;57318;56.232;43.944;2023-02-13T02:01:27;99049.72;;;-6.93;75.84
69980;BME280;57318;56.232;43.944;2023-02-13T02:03:56;99039.50;;;-7.01;75.46
69980;BME280;57318;56.232;43.944;2023-02-13T02:06:35;99032.81;;;-7.16;75.09
69980;BME280;57318;56.232;43.944;2023-02-13T02:09:06;99041.59;;;-7.28;75.36
69980;BME280;57318;56.232;43.944;2023-02-13T02:14:11;99036.84;;;-7.57;75.94
69980;BME280;57318;56.232;43.944;2023-02-13T02:16:57;99043.84;;;-7.67;76.26
69980;BME280;57318;56.232;43.944;2023-02-13T02:19:43;99046.50;;;-7.73;76.50
69980;BME280;57318;56.232;43.944;2023-02-13T02:36:28;99044.28;;;-8.04;77.39
69980;BME280;57318;56.232;43.944;2023-02-13T02:44:38;99018.59;;;-8.13;77.54
69980;BME280;57318;56.232;43.944;2023-02-13T03:01:33;99012.16;;;-8.53;78.63
69980;BME280;57318;56.232;43.944;2023-02-13T03:04:25;99016.53;;;-8.58;78.62
69980;BME280;57318;56.232;43.944;2023-02-13T03:07:14;99011.44;;;-8.67;79.12
69980;BME280;57318;56.232;43.944;2023-02-13T03:09:44;99009.69;;;-8.65;79.29
69980;BME280;57318;56.232;43.944;2023-02-13T03:15:42;99008.81;;;-8.59;79.45
69980;BME280;57318;56.232;43.944;2023-02-13T03:18:30;98999.31;;;-8.54;79.19
69980;BME280;57318;56.232;43.944;2023-02-13T03:21:22;99010.38;;;-8.46;79.26
69980;BME280;57318;56.232;43.944;2023-02-13T03:29:51;99006.75;;;-8.29;78.77
69980;BME280;57318;56.232;43.944;2023-02-13T03:33:24;99006.72;;;-8.26;77.92
69980;BME280;57318;56.232;43.944;2023-02-13T03:41:20;98993.81;;;-8.25;77.42
69980;BME280;57318;56.232;43.944;2023-02-13T03:46:18;98985.25;;;-8.28;77.18
69980;BME280;57318;56.232;43.944;2023-02-13T03:48:44;98982.72;;;-8.31;76.98
69980;BME280;57318;56.232;43.944;2023-02-13T03:51:48;98991.38;;;-8.39;76.72
69980;BME280;57318;56.232;43.944;2023-02-13T03:54:26;98980.28;;;-8.42;76.98
69980;BME280;57318;56.232;43.944;2023-02-13T03:57:17;98989.03;;;-8.57;77.00
69980;BME280;57318;56.232;43.944;2023-02-13T04:00:06;98995.00;;;-8.55;76.91
69980;BME280;57318;56.232;43.944;2023-02-13T04:02:37;98993.25;;;-8.50;77.12
69980;BME280;57318;56.232;43.944;2023-02-13T04:05:10;98990.69;;;-8.50;77.29
69980;BME280;57318;56.232;43.944;2023-02-13T04:07:39;98996.78;;;-8.60;76.98
69980;BME280;57318;56.232;43.944;2023-02-13T04:10:09;99010.59;;;-8.67;76.88
69980;BME280;57318;56.232;43.944;2023-02-13T04:12:59;99006.38;;;-8.76;77.13
69980;BME280;57318;56.232;43.944;2023-02-13T04:15:31;99003.91;;;-8.87;77.25
69980;BME280;57318;56.232;43.944;2023-02-13T04:18:07;99000.44;;;-8.84;77.44
69980;BME280;57318;56.232;43.944;2023-02-13T04:20:34;99004.72;;;-8.85;77.52
69980;BME280;57318;56.232;43.944;2023-02-13T04:23:08;98999.66;;;-8.93;77.42
69980;BME280;57318;56.232;43.944;2023-02-13T04:25:36;98997.94;;;-8.94;78.05
69980;BME280;57318;56.232;43.944;2023-02-13T04:28:03;98997.97;;;-8.95;77.83
69980;BME280;57318;56.232;43.944;2023-02-13T04:30:28;99003.97;;;-8.96;77.66
69980;BME280;57318;56.232;43.944;2023-02-13T04:32:54;98991.09;;;-8.96;77.67
69980;BME280;57318;56.232;43.944;2023-02-13T04:35:20;99001.38;;;-8.96;77.82
69980;BME280;57318;56.232;43.944;2023-02-13T04:37:45;99001.41;;;-8.98;77.70
69980;BME280;57318;56.232;43.944;2023-02-13T04:40:11;98988.53;;;-8.96;77.83
69980;BME280;57318;56.232;43.944;2023-02-13T04:42:36;99008.25;;;-8.95;78.12
69980;BME280;57318;56.232;43.944;2023-02-13T04:45:02;98999.72;;;-8.99;77.74
69980;BME280;57318;56.232;43.944;2023-02-13T04:47:28;99003.16;;;-9.01;77.76
69980;BME280;57318;56.232;43.944;2023-02-13T04:49:54;99002.31;;;-9.03;77.76
69980;BME280;57318;56.232;43.944;2023-02-13T04:52:20;99011.78;;;-9.07;77.72
69980;BME280;57318;56.232;43.944;2023-02-13T04:54:45;99009.16;;;-9.02;77.65
69980;BME280;57318;56.232;43.944;2023-02-13T04:57:11;99008.34;;;-9.06;77.37
69980;BME280;57318;56.232;43.944;2023-02-13T04:59:36;98999.81;;;-9.10;77.28
69980;BME280;57318;56.232;43.944;2023-02-13T05:02:02;99005.81;;;-9.14;77.21
69980;BME280;57318;56.232;43.944;2023-02-13T05:04:29;98997.28;;;-9.16;77.22
69980;BME280;57318;56.232;43.944;2023-02-13T05:06:57;98999.84;;;-9.14;77.42
69980;BME280;57318;56.232;43.944;2023-02-13T05:09:22;98994.69;;;-9.16;77.48
69980;BME280;57318;56.232;43.944;2023-02-13T05:11:52;99000.66;;;-9.12;77.36
69980;BME280;57318;56.232;43.944;2023-02-13T05:14:18;99004.97;;;-9.11;77.15
69980;BME280;57318;56.232;43.944;2023-02-13T05:16:44;99002.38;;;-9.10;77.34
69980;BME280;57318;56.232;43.944;2023-02-13T05:19:09;99006.59;;;-9.04;77.49
69980;BME280;57318;56.232;43.944;2023-02-13T05:21:35;99006.59;;;-9.02;77.20
69980;BME280;57318;56.232;43.944;2023-02-13T05:24:19;99015.19;;;-9.00;76.85
69980;BME280;57318;56.232;43.944;2023-02-13T05:26:45;99008.28;;;-9.00;76.54
69980;BME280;57318;56.232;43.944;2023-02-13T05:29:14;99009.13;;;-8.96;76.49
69980;BME280;57318;56.232;43.944;2023-02-13T05:31:48;99003.97;;;-8.98;76.19
69980;BME280;57318;56.232;43.944;2023-02-13T05:34:14;98994.53;;;-8.96;76.20
69980;BME280;57318;56.232;43.944;2023-02-13T05:36:40;98998.78;;;-8.93;75.97
69980;BME280;57318;56.232;43.944;2023-02-13T05:39:06;98985.84;;;-8.85;75.75
69980;BME280;57318;56.232;43.944;2023-02-13T05:41:32;98986.69;;;-8.85;74.97
69980;BME280;57318;56.232;43.944;2023-02-13T05:43:57;98981.59;;;-8.88;74.14
69980;BME280;57318;56.232;43.944;2023-02-13T05:46:23;98975.56;;;-8.87;73.80
69980;BME280;57318;56.232;43.944;2023-02-13T05:48:48;98974.66;;;-8.80;73.71
69980;BME280;57318;56.232;43.944;2023-02-13T05:51:14;98982.25;;;-8.66;73.22
69980;BME280;57318;56.232;43.944;2023-02-13T05:53:39;98983.00;;;-8.53;73.41
69980;BME280;57318;56.232;43.944;2023-02-13T05:56:05;98979.28;;;-8.34;73.54
69980;BME280;57318;56.232;43.944;2023-02-13T05:58:32;98975.63;;;-8.11;73.41
69980;BME280;57318;56.232;43.944;2023-02-13T06:00:58;98979.53;;;-7.82;73.23
69980;BME280;57318;56.232;43.944;2023-02-13T06:03:25;98982.66;;;-7.58;70.20
69980;BME280;57318;56.232;43.944;2023-02-13T06:05:52;98986.31;;;-7.14;70.62
69980;BME280;57318;56.232;43.944;2023-02-13T06:08:18;98982.22;;;-6.75;68.30
69980;BME280;57318;56.232;43.944;2023-02-13T06:10:47;98984.66;;;-6.65;65.57
69980;BME280;57318;56.232;43.944;2023-02-13T06:13:13;98978.88;;;-6.80;66.91
69980;BME280;57318;56.232;43.944;2023-02-13T06:15:39;98979.03;;;-6.91;65.83
69980;BME280;57318;56.232;43.944;2023-02-13T06:18:05;98969.81;;;-7.04;66.18
69980;BME280;57318;56.232;43.944;2023-02-13T06:20:30;98974.94;;;-7.02;66.83
69980;BME280;57318;56.232;43.944;2023-02-13T06:22:56;98968.63;;;-6.84;67.29
69980;BME280;57318;56.232;43.944;2023-02-13T06:25:22;98970.97;;;-6.71;67.92
69980;BME280;57318;56.232;43.944;2023-02-13T06:27:48;98978.81;;;-6.77;68.22
69980;BME280;57318;56.232;43.944;2023-02-13T06:30:15;98972.94;;;-6.85;68.46
69980;BME280;57318;56.232;43.944;2023-02-13T06:32:41;98959.22;;;-6.90;69.32
69980;BME280;57318;56.232;43.944;2023-02-13T06:35:07;98961.09;;;-6.98;68.26
69980;BME280;57318;56.232;43.944;2023-02-13T06:37:33;98957.84;;;-7.10;69.11
69980;BME280;57318;56.232;43.944;2023-02-13T06:39:59;98962.38;;;-7.24;69.12
69980;BME280;57318;56.232;43.944;2023-02-13T06:42:24;98944.66;;;-7.47;69.38
69980;BME280;57318;56.232;43.944;2023-02-13T06:44:50;98948.41;;;-7.68;70.44
69980;BME280;57318;56.232;43.944;2023-02-13T06:47:16;98950.19;;;-7.73;70.45
69980;BME280;57318;56.232;43.944;2023-02-13T06:49:41;98938.47;;;-7.96;71.07
69980;BME280;57318;56.232;43.944;2023-02-13T06:52:07;98942.09;;;-8.09;71.48
69980;BME280;57318;56.232;43.944;2023-02-13T06:54:33;98935.44;;;-8.30;72.09
69980;BME280;57318;56.232;43.944;2023-02-13T06:56:58;98939.19;;;-8.51;72.74
69980;BME280;57318;56.232;43.944;2023-02-13T06:59:24;98932.34;;;-8.56;73.05
69980;BME280;57318;56.232;43.944;2023-02-13T07:01:49;98935.94;;;-8.71;73.36
69980;BME280;57318;56.232;43.944;2023-02-13T07:04:15;98925.59;;;-8.66;73.66
69980;BME280;57318;56.232;43.944;2023-02-13T07:06:41;98921.31;;;-8.68;73.91
69980;BME280;57318;56.232;43.944;2023-02-13T07:09:06;98916.16;;;-8.68;73.68
69980;BME280;57318;56.232;43.944;2023-02-13T07:11:32;98923.94;;;-8.72;74.23
69980;BME280;57318;56.232;43.944;2023-02-13T07:13:57;98910.22;;;-8.74;74.70
69980;BME280;57318;56.232;43.944;2023-02-13T07:16:23;98909.47;;;-8.85;74.79
69980;BME280;57318;56.232;43.944;2023-02-13T07:18:48;98908.69;;;-8.93;75.18
69980;BME280;57318;56.232;43.944;2023-02-13T07:21:14;98909.53;;;-8.90;75.05
69980;BME280;57318;56.232;43.944;2023-02-13T07:23:39;98909.59;;;-8.97;75.36
69980;BME280;57318;56.232;43.944;2023-02-13T07:26:05;98907.00;;;-8.93;75.40
69980;BME280;57318;56.232;43.944;2023-02-13T07:28:31;98903.44;;;-8.82;74.41
69980;BME280;57318;56.232;43.944;2023-02-13T07:30:56;98907.66;;;-8.74;74.77
69980;BME280;57318;56.232;43.944;2023-02-13T07:33:22;98907.59;;;-8.69;74.95
69980;BME280;57318;56.232;43.944;2023-02-13T07:35:49;98910.00;;;-8.55;74.44
69980;BME280;57318;56.232;43.944;2023-02-13T07:38:16;98914.97;;;-8.41;73.94
69980;BME280;57318;56.232;43.944;2023-02-13T07:40:42;98914.03;;;-8.36;73.52
69980;BME280;57318;56.232;43.944;2023-02-13T07:43:08;98912.22;;;-8.26;73.09
69980;BME280;57318;56.232;43.944;2023-02-13T07:45:33;98911.22;;;-8.16;73.71
69980;BME280;57318;56.232;43.944;2023-02-13T07:47:59;98905.97;;;-8.08;73.06
69980;BME280;57318;56.232;43.944;2023-02-13T07:50:25;98910.03;;;-7.91;73.36
69980;BME280;57318;56.232;43.944;2023-02-13T07:52:55;98898.91;;;-7.93;73.69
69980;BME280;57318;56.232;43.944;2023-02-13T07:55:21;98906.69;;;-7.96;73.48
69980;BME280;57318;56.232;43.944;2023-02-13T07:57:47;98903.34;;;-8.05;73.21
69980;BME280;57318;56.232;43.944;2023-02-13T08:00:14;98899.09;;;-8.07;74.16
69980;BME280;57318;56.232;43.944;2023-02-13T08:02:40;98887.00;;;-8.05;73.90
69980;BME280;57318;56.232;43.944;2023-02-13T08:05:06;98887.63;;;-7.88;73.94
69980;BME280;57318;56.232;43.944;2023-02-13T08:07:32;98885.56;;;-7.64;72.74
69980;BME280;57318;56.232;43.944;2023-02-13T08:09:58;98867.94;;;-7.39;73.54
69980;BME280;57318;56.232;43.944;2023-02-13T08:12:41;98870.63;;;-6.94;72.28
69980;BME280;57318;56.232;43.944;2023-02-13T08:15:12;98875.97;;;-6.58;72.02
69980;BME280;57318;56.232;43.944;2023-02-13T08:17:37;98866.19;;;-6.43;71.67
69980;BME280;57318;56.232;43.944;2023-02-13T08:20:04;98879.13;;;-6.43;70.52
69980;BME280;57318;56.232;43.944;2023-02-13T08:22:32;98860.31;;;-6.50;70.39
69980;BME280;57318;56.232;43.944;2023-02-13T08:24:57;98857.44;;;-6.36;70.30
69980;BME280;57318;56.232;43.944;2023-02-13T08:27:23;98848.78;;;-6.35;70.37
69980;BME280;57318;56.232;43.944;2023-02-13T08:29:49;98856.09;;;-6.56;70.08
69980;BME280;57318;56.232;43.944;2023-02-13T08:32:16;98840.00;;;-6.68;70.40
69980;BME280;57318;56.232;43.944;2023-02-13T08:34:41;98845.28;;;-6.75;71.33
69980;BME280;57318;56.232;43.944;2023-02-13T08:37:07;98848.50;;;-6.63;71.33
69980;BME280;57318;56.232;43.944;2023-02-13T08:39:33;98836.84;;;-6.39;71.03
69980;BME280;57318;56.232;43.944;2023-02-13T08:41:59;98828.50;;;-6.11;70.57
69980;BME280;57318;56.232;43.944;2023-02-13T08:44:24;98823.59;;;-5.88;70.10
69980;BME280;57318;56.232;43.944;2023-02-13T08:46:50;98816.78;;;-5.92;69.42
69980;BME280;57318;56.232;43.944;2023-02-13T08:49:16;98815.91;;;-5.91;68.84
69980;BME280;57318;56.232;43.944;2023-02-13T08:51:42;98816.59;;;-6.20;67.88
69980;BME280;57318;56.232;43.944;2023-02-13T08:54:08;98805.34;;;-6.18;69.22
69980;BME280;57318;56.232;43.944;2023-02-13T08:56:33;98802.06;;;-6.26;70.04
69980;BME280;57318;56.232;43.944;2023-02-13T08:58:59;98788.25;;;-6.25;70.56
69980;BME280;57318;56.232;43.944;2023-02-13T09:01:25;98787.41;;;-6.25;70.68
69980;BME280;57318;56.232;43.944;2023-02-13T09:03:50;98782.47;;;-6.36;70.42
69980;BME280;57318;56.232;43.944;2023-02-13T09:06:16;98788.53;;;-6.37;71.25
69980;BME280;57318;56.232;43.944;2023-02-13T09:08:42;98772.63;;;-6.20;70.49
69980;BME280;57318;56.232;43.944;2023-02-13T09:11:08;98773.97;;;-5.69;69.77
69980;BME280;57318;56.232;43.944;2023-02-13T09:13:35;98766.25;;;-4.44;68.63
69980;BME280;57318;56.232;43.944;2023-02-13T09:16:05;98761.75;;;-3.05;65.59
69980;BME280;57318;56.232;43.944;2023-02-13T09:18:31;98770.59;;;-2.62;63.70
69980;BME280;57318;56.232;43.944;2023-02-13T09:21:03;98753.78;;;-2.53;60.32
69980;BME280;57318;56.232;43.944;2023-02-13T09:23:31;98758.69;;;-2.45;61.62
69980;BME280;57318;56.232;43.944;2023-02-13T09:26:05;98758.63;;;-0.75;58.32
69980;BME280;57318;56.232;43.944;2023-02-13T09:28:32;98750.56;;;-0.13;57.10
69980;BME280;57318;56.232;43.944;2023-02-13T09:30:58;98752.78;;;-0.42;55.86
69980;BME280;57318;56.232;43.944;2023-02-13T09:33:24;98757.94;;;-0.21;54.16
69980;BME280;57318;56.232;43.944;2023-02-13T09:35:50;98753.44;;;0.54;53.68
69980;BME280;57318;56.232;43.944;2023-02-13T09:38:16;98746.81;;;1.80;48.39
69980;BME280;57318;56.232;43.944;2023-02-13T09:40:44;98742.59;;;2.70;47.32
69980;BME280;57318;56.232;43.944;2023-02-13T09:43:29;98740.84;;;3.14;45.71
69980;BME280;57318;56.232;43.944;2023-02-13T09:46:00;98730.59;;;2.66;49.47
69980;BME280;57318;56.232;43.944;2023-02-13T09:48:32;98730.09;;;1.67;50.04
69980;BME280;57318;56.232;43.944;2023-02-13T09:50:59;98729.59;;;1.11;51.49
69980;BME280;57318;56.232;43.944;2023-02-13T09:53:27;98720.19;;;0.04;53.63
69980;BME280;57318;56.232;43.944;2023-02-13T09:56:12;98716.53;;;-0.86;55.61
69980;BME280;57318;56.232;43.944;2023-02-13T09:58:48;98712.31;;;-1.49;56.65
69980;BME280;57318;56.232;43.944;2023-02-13T10:01:33;98699.88;;;-2.05;58.87
69980;BME280;57318;56.232;43.944;2023-02-13T10:04:26;98701.22;;;-2.39;60.78
69980;BME280;57318;56.232;43.944;2023-02-13T10:07:22;98687.59;;;-2.68;62.04
69980;BME280;57318;56.232;43.944;2023-02-13T10:09:52;98694.28;;;-2.84;62.81
69980;BME280;57318;56.232;43.944;2023-02-13T10:12:45;98665.16;;;-2.94;61.57
69980;BME280;57318;56.232;43.944;2023-02-13T10:18:03;98668.72;;;-2.29;60.12
69980;BME280;57318;56.232;43.944;2023-02-13T10:20:38;98665.41;;;-1.49;59.97
69980;BME280;57318;56.232;43.944;2023-02-13T10:25:58;98656.34;;;-0.81;58.61
69980;BME280;57318;56.232;43.944;2023-02-13T10:31:02;98651.75;;;-1.54;59.39
69980;BME280;57318;56.232;43.944;2023-02-13T10:33:51;98657.72;;;-1.93;59.39
69980;BME280;57318;56.232;43.944;2023-02-13T10:36:18;98659.00;;;-2.03;60.44
69980;BME280;57318;56.232;43.944;2023-02-13T10:38:55;98647.13;;;-1.68;60.60
69980;BME280;57318;56.232;43.944;2023-02-13T10:44:17;98659.69;;;-1.57;59.10
69980;BME280;57318;56.232;43.944;2023-02-13T10:54:51;98625.47;;;-2.11;60.39
69980;BME280;57318;56.232;43.944;2023-02-13T11:00:41;98626.44;;;-2.34;60.67
69980;BME280;57318;56.232;43.944;2023-02-13T11:03:04;98622.59;;;-2.25;57.74
69980;BME280;57318;56.232;43.944;2023-02-13T11:07:58;98613.31;;;-2.31;61.53
69980;BME280;57318;56.232;43.944;2023-02-13T11:10:27;98611.97;;;-2.41;61.20
69980;BME280;57318;56.232;43.944;2023-02-13T11:12:54;98615.88;;;-2.51;61.23
69980;BME280;57318;56.232;43.944;2023-02-13T11:15:28;98594.31;;;-2.77;59.83
69980;BME280;57318;56.232;43.944;2023-02-13T11:17:57;98599.03;;;-2.87;62.65
69980;BME280;57318;56.232;43.944;2023-02-13T11:20:36;98584.03;;;-3.02;61.92
69980;BME280;57318;56.232;43.944;2023-02-13T11:25:58;98588.22;;;-3.44;63.43
69980;BME280;57318;56.232;43.944;2023-02-13T11:28:28;98585.63;;;-3.44;63.57
69980;BME280;57318;56.232;43.944;2023-02-13T11:33:38;98560.59;;;-3.47;62.60
69980;BME280;57318;56.232;43.944;2023-02-13T11:36:07;98554.13;;;-3.60;63.97
69980;BME280;57318;56.232;43.944;2023-02-13T11:38:33;98566.06;;;-3.78;64.44
69980;BME280;57318;56.232;43.944;2023-02-13T11:41:08;98549.63;;;-4.02;63.95
69980;BME280;57318;56.232;43.944;2023-02-13T11:43:45;98556.38;;;-3.98;63.88
69980;BME280;57318;56.232;43.944;2023-02-13T11:46:24;98554.53;;;-3.94;64.47
69980;BME280;57318;56.232;43.944;2023-02-13T11:49:03;98559.69;;;-3.93;66.25
69980;BME280;57318;56.232;43.944;2023-02-13T11:51:43;98545.47;;;-4.08;64.78
69980;BME280;57318;56.232;43.944;2023-02-13T11:56:58;98543.16;;;-4.15;66.43
69980;BME280;57318;56.232;43.944;2023-02-13T11:59:26;98546.31;;;-4.32;66.86
69980;BME280;57318;56.232;43.944;2023-02-13T12:04:27;98552.66;;;-4.41;66.12
69980;BME280;57318;56.232;43.944;2023-02-13T12:06:59;98532.81;;;-4.42;67.26
69980;BME280;57318;56.232;43.944;2023-02-13T12:09:26;98532.09;;;-4.46;67.46
69980;BME280;57318;56.232;43.944;2023-02-13T12:11:53;98526.41;;;-4.57;65.58
69980;BME280;57318;56.232;43.944;2023-02-13T12:14:23;98523.88;;;-4.59;66.84
69980;BME280;57318;56.232;43.944;2023-02-13T12:17:12;98526.63;;;-4.63;68.19
69980;BME280;57318;56.232;43.944;2023-02-13T12:19:41;98523.31;;;-4.68;67.75
69980;BME280;57318;56.232;43.944;2023-02-13T12:25:15;98526.47;;;-4.85;68.01
69980;BME280;57318;56.232;43.944;2023-02-13T12:33:21;98517.63;;;-5.07;68.88
69980;BME280;57318;56.232;43.944;2023-02-13T12:42:25;98501.97;;;-5.03;68.45
69980;BME280;57318;56.232;43.944;2023-02-13T12:45:12;98501.25;;;-5.07;68.16
69980;BME280;57318;56.232;43.944;2023-02-13T12:53:27;98492.31;;;-4.98;65.80
69980;BME280;57318;56.232;43.944;2023-02-13T12:56:18;98488.13;;;-5.02;68.39
69980;BME280;57318;56.232;43.944;2023-02-13T13:02:02;98482.84;;;-4.99;68.74
69980;BME280;57318;56.232;43.944;2023-02-13T13:12:54;98491.53;;;-5.00;69.13
69980;BME280;57318;56.232;43.944;2023-02-13T13:15:38;98487.22;;;-5.00;69.79
69980;BME280;57318;56.232;43.944;2023-02-13T13:18:31;98493.22;;;-4.99;69.85
69980;BME280;57318;56.232;43.944;2023-02-13T13:23:42;98489.84;;;-5.01;69.25
69980;BME280;57318;56.232;43.944;2023-02-13T13:28:51;98488.25;;;-5.05;70.01
69980;BME280;57318;56.232;43.944;2023-02-13T13:31:19;98488.34;;;-5.09;69.51
69980;BME280;57318;56.232;43.944;2023-02-13T13:33:48;98486.63;;;-5.10;67.37
69980;BME280;57318;56.232;43.944;2023-02-13T13:39:14;98473.81;;;-5.14;69.38
69980;BME280;57318;56.232;43.944;2023-02-13T13:42:03;98474.88;;;-5.20;69.72
69980;BME280;57318;56.232;43.944;2023-02-13T13:45:09;98461.13;;;-5.22;69.44
69980;BME280;57318;56.232;43.944;2023-02-13T13:50:44;98480.44;;;-5.32;69.84
69980;BME280;57318;56.232;43.944;2023-02-13T13:53:16;98476.97;;;-5.31;69.13
69980;BME280;57318;56.232;43.944;2023-02-13T13:58:24;98454.59;;;-5.34;70.17
69980;BME280;57318;56.232;43.944;2023-02-13T14:01:28;98446.94;;;-5.37;69.49
69980;BME280;57318;56.232;43.944;2023-02-13T14:03:59;98442.78;;;-5.43;70.00
69980;BME280;57318;56.232;43.944;2023-02-13T14:09:05;98447.34;;;-5.51;70.83
69980;BME280;57318;56.232;43.944;2023-02-13T14:13:58;98419.94;;;-5.56;70.53
69980;BME280;57318;56.232;43.944;2023-02-13T14:16:39;98412.13;;;-5.55;70.97
69980;BME280;57318;56.232;43.944;2023-02-13T14:19:22;98411.22;;;-5.54;71.16
69980;BME280;57318;56.232;43.944;2023-02-13T14:21:49;98408.63;;;-5.54;71.09
69980;BME280;57318;56.232;43.944;2023-02-13T14:24:17;98417.22;;;-5.53;71.54
69980;BME280;57318;56.232;43.944;2023-02-13T14:26:50;98412.00;;;-5.52;71.42
69980;BME280;57318;56.232;43.944;2023-02-13T14:29:29;98412.00;;;-5.52;71.51
69980;BME280;57318;56.232;43.944;2023-02-13T14:32:03;98392.16;;;-5.51;71.92
69980;BME280;57318;56.232;43.944;2023-02-13T14:34:37;98406.81;;;-5.52;72.20
69980;BME280;57318;56.232;43.944;2023-02-13T14:37:17;98404.41;;;-5.56;72.81
69980;BME280;57318;56.232;43.944;2023-02-13T14:40:31;98407.28;;;-5.66;73.35
69980;BME280;57318;56.232;43.944;2023-02-13T14:43:20;98389.34;;;-5.72;73.80
69980;BME280;57318;56.232;43.944;2023-02-13T14:45:53;98409.38;;;-5.78;73.35
69980;BME280;57318;56.232;43.944;2023-02-13T14:48:23;98405.19;;;-5.83;73.82
69980;BME280;57318;56.232;43.944;2023-02-13T14:50:52;98394.19;;;-5.89;73.77
69980;BME280;57318;56.232;43.944;2023-02-13T14:53:24;98393.47;;;-5.94;73.78
69980;BME280;57318;56.232;43.944;2023-02-13T14:56:20;98389.28;;;-5.97;74.06
69980;BME280;57318;56.232;43.944;2023-02-13T14:58:53;98377.22;;;-5.98;73.72
69980;BME280;57318;56.232;43.944;2023-02-13T15:01:30;98376.50;;;-6.02;74.23
69980;BME280;57318;56.232;43.944;2023-02-13T15:04:02;98371.31;;;-6.02;73.74
69980;BME280;57318;56.232;43.944;2023-02-13T15:06:33;98375.72;;;-6.05;74.04
69980;BME280;57318;56.232;43.944;2023-02-13T15:09:02;98363.00;;;-6.11;73.78
69980;BME280;57318;56.232;43.944;2023-02-13T15:11:40;98363.78;;;-6.09;73.77
69980;BME280;57318;56.232;43.944;2023-02-13T15:16:56;98355.41;;;-6.18;73.94
69980;BME280;57318;56.232;43.944;2023-02-13T15:19:24;98356.34;;;-6.20;74.37
69980;BME280;57318;56.232;43.944;2023-02-13T15:21:58;98353.75;;;-6.20;74.39
69980;BME280;57318;56.232;43.944;2023-02-13T15:24:25;98359.75;;;-6.20;74.47
69980;BME280;57318;56.232;43.944;2023-02-13T15:26:58;98346.84;;;-6.20;75.01
69980;BME280;57318;56.232;43.944;2023-02-13T15:29:25;98345.13;;;-6.19;74.98
69980;BME280;57318;56.232;43.944;2023-02-13T15:31:51;98338.19;;;-6.19;74.61
69980;BME280;57318;56.232;43.944;2023-02-13T15:34:28;98334.81;;;-6.21;74.25